createdAt,value
2016-03-18T00:00:56.256Z,84.77
2016-03-18T00:01:56.242Z,84.58
2016-03-18T00:02:56.246Z,84.58
2016-03-18T00:03:56.264Z,84.3
2016-03-18T00:04:56.250Z,84.77
2016-03-18T00:05:56.238Z,84.77
2016-03-18T00:06:56.121Z,84.77
2016-03-18T00:07:56.248Z,84.77
2016-03-18T00:08:56.237Z,84.96
2016-03-18T00:09:56.239Z,85.05
2016-03-18T00:10:56.225Z,85.24
2016-03-18T00:11:56.229Z,85.34
2016-03-18T00:12:56.231Z,84.77
2016-03-18T00:13:56.234Z,84.68
2016-03-18T00:14:56.236Z,84.68
2016-03-18T00:15:56.224Z,85.24
2016-03-18T00:16:56.227Z,84.86
2016-03-18T00:17:56.230Z,85.05
2016-03-18T00:18:56.216Z,84.77
2016-03-18T00:19:56.218Z,85.24
2016-03-18T00:20:56.253Z,84.96
2016-03-18T00:21:56.068Z,85.34
2016-03-18T00:22:56.211Z,85.24
2016-03-18T00:23:56.214Z,84.96
2016-03-18T00:24:56.216Z,84.96
2016-03-18T00:25:56.204Z,84.96
2016-03-18T00:26:56.207Z,85.24
2016-03-18T00:27:56.224Z,85.53
2016-03-18T00:28:56.196Z,85.53
2016-03-18T00:29:56.199Z,85.43
2016-03-18T00:30:56.202Z,85.24
2016-03-18T00:31:56.206Z,85.3
2016-03-18T00:32:56.208Z,85.24
2016-03-18T00:33:56.195Z,85.2
2016-03-18T00:34:56.197Z,85.39
2016-03-18T00:35:56.200Z,85.11
2016-03-18T00:36:56.282Z,85.39
2016-03-18T00:37:56.191Z,85.39
2016-03-18T00:38:56.193Z,85.2
2016-03-18T00:39:56.196Z,85.2
2016-03-18T00:40:56.198Z,85.11
2016-03-18T00:41:56.185Z,85.2
2016-03-18T00:42:56.187Z,85.2
2016-03-18T00:43:56.175Z,85.39
2016-03-18T00:44:56.178Z,85.2
2016-03-18T00:45:56.180Z,85.68
2016-03-18T00:46:56.183Z,85.11
2016-03-18T00:47:56.170Z,85.3
2016-03-18T00:48:56.173Z,85.58
2016-03-18T00:49:56.176Z,85.3
2016-03-18T00:50:56.178Z,85.58
2016-03-18T00:51:56.056Z,85.96
2016-03-18T00:52:56.183Z,85.96
2016-03-18T00:53:56.170Z,85.96
2016-03-18T00:54:56.173Z,85.96
2016-03-18T00:55:56.160Z,85.86
2016-03-18T00:56:56.007Z,85.96
2016-03-18T00:57:56.166Z,85.86
2016-03-18T00:58:56.153Z,85.68
2016-03-18T00:59:56.156Z,85.96
2016-03-18T01:00:56.159Z,85.77
2016-03-18T01:01:56.161Z,86.05
2016-03-18T01:02:56.164Z,85.58
2016-03-18T01:03:56.150Z,86.15
2016-03-18T01:04:56.169Z,85.58
2016-03-18T01:05:56.156Z,85.86
2016-03-18T01:06:56.174Z,86.05
2016-03-18T01:07:56.151Z,85.96
2016-03-18T01:08:56.153Z,85.96
2016-03-18T01:09:56.140Z,85.77
2016-03-18T01:10:56.143Z,85.86
2016-03-18T01:11:56.145Z,85.58
2016-03-18T01:12:56.133Z,85.86
2016-03-18T01:13:56.135Z,85.96
2016-03-18T01:14:56.138Z,85.58
2016-03-18T01:15:56.141Z,86.52
2016-03-18T01:16:56.143Z,85.86
2016-03-18T01:17:56.131Z,86.52
2016-03-18T01:18:56.117Z,85.96
2016-03-18T01:19:56.136Z,85.86
2016-03-18T01:20:56.123Z,86.52
2016-03-18T01:21:56.126Z,86.43
2016-03-18T01:22:56.128Z,86.43
2016-03-18T01:23:56.116Z,86.43
2016-03-18T01:24:56.119Z,86.15
2016-03-18T01:25:56.121Z,86.52
2016-03-18T01:26:56.124Z,86.05
2016-03-18T01:27:56.111Z,86.62
2016-03-18T01:28:56.113Z,86.43
2016-03-18T01:29:56.116Z,86.8
2016-03-18T01:30:56.102Z,86.43
2016-03-18T01:31:56.121Z,86.62
2016-03-18T01:32:56.108Z,86.62
2016-03-18T01:33:56.110Z,86.62
2016-03-18T01:34:56.099Z,86.43
2016-03-18T01:35:56.101Z,86.24
2016-03-18T01:36:56.104Z,86.71
2016-03-18T01:37:56.106Z,86.9
2016-03-18T01:38:56.093Z,86.9
2016-03-18T01:39:56.096Z,86.62
2016-03-18T01:40:56.099Z,86.62
2016-03-18T01:41:56.101Z,86.62
2016-03-18T01:42:56.088Z,86.62
2016-03-18T01:43:56.107Z,86.62
2016-03-18T01:44:56.093Z,86.8
2016-03-18T01:45:56.081Z,86.62
2016-03-18T01:46:56.083Z,86.8
2016-03-18T01:47:56.086Z,86.9
2016-03-18T01:48:56.073Z,86.62
2016-03-18T01:49:56.091Z,86.62
2016-03-18T01:50:56.126Z,86.62
2016-03-18T01:51:56.066Z,86.62
2016-03-18T01:52:56.084Z,86.52
2016-03-18T01:53:56.072Z,86.9
2016-03-18T01:54:56.074Z,86.99
2016-03-18T01:55:56.092Z,86.8
2016-03-18T01:56:56.063Z,86.8
2016-03-18T01:57:56.083Z,86.99
2016-03-18T01:58:56.069Z,87.47
2016-03-18T01:59:56.056Z,87.56
2016-03-18T02:00:56.074Z,87.47
2016-03-18T02:01:56.061Z,87.47
2016-03-18T02:02:56.064Z,87.09
2016-03-18T02:03:56.067Z,87.18
2016-03-18T02:04:56.054Z,87.56
2016-03-18T02:05:56.057Z,87.56
2016-03-18T02:06:56.044Z,87.47
2016-03-18T02:07:56.063Z,87.56
2016-03-18T02:08:56.049Z,87.28
2016-03-18T02:09:56.036Z,87.94
2016-03-18T02:10:56.054Z,87.85
2016-03-18T02:11:56.041Z,87.66
2016-03-18T02:12:56.028Z,87.85
2016-03-18T02:13:56.032Z,87.94
2016-03-18T02:14:56.034Z,87.66
2016-03-18T02:15:56.037Z,87.85
2016-03-18T02:16:56.040Z,87.75
2016-03-18T02:17:56.027Z,88.04
2016-03-18T02:18:56.045Z,87.85
2016-03-18T02:19:56.031Z,87.85
2016-03-18T02:20:56.034Z,87.94
2016-03-18T02:21:56.022Z,87.85
2016-03-18T02:22:56.040Z,87.94
2016-03-18T02:23:56.028Z,87.85
2016-03-18T02:24:56.045Z,87.85
2016-03-18T02:25:56.016Z,87.66
2016-03-18T02:26:56.019Z,87.66
2016-03-18T02:27:56.022Z,87.94
2016-03-18T02:28:56.025Z,87.94
2016-03-18T02:29:56.011Z,87.94
2016-03-18T02:30:55.999Z,87.75
2016-03-18T02:31:56.002Z,87.85
2016-03-18T02:32:56.004Z,87.85
2016-03-18T02:33:56.007Z,87.75
2016-03-18T02:34:56.010Z,87.85
2016-03-18T02:35:56.012Z,88.04
2016-03-18T02:36:56.000Z,88.04
2016-03-18T02:37:55.986Z,88.13
2016-03-18T02:38:55.271Z,88.23
2016-03-18T02:39:55.987Z,87.66
2016-03-18T02:40:56.017Z,87.66
2016-03-18T02:41:55.989Z,87.85
2016-03-18T02:42:56.226Z,88.04
2016-03-18T02:43:55.979Z,87.99
2016-03-18T02:44:55.982Z,87.94
2016-03-18T02:45:55.968Z,87.9
2016-03-18T02:46:55.987Z,87.94
2016-03-18T02:47:55.958Z,87.99
2016-03-18T02:48:55.977Z,87.99
2016-03-18T02:49:55.948Z,87.99
2016-03-18T02:50:55.951Z,87.71
2016-03-18T02:51:55.954Z,87.8
2016-03-18T02:52:55.957Z,87.9
2016-03-18T02:53:55.959Z,87.62
2016-03-18T02:54:55.946Z,87.62
2016-03-18T02:55:55.949Z,87.62
2016-03-18T02:56:55.936Z,87.8
2016-03-18T02:57:55.954Z,87.52
2016-03-18T02:58:55.941Z,87.8
2016-03-18T02:59:55.944Z,88.28
2016-03-18T03:00:55.930Z,88.28
2016-03-18T03:01:55.933Z,88.65
2016-03-18T03:02:55.936Z,88.46
2016-03-18T03:03:55.938Z,88.18
2016-03-18T03:04:55.941Z,88.46
2016-03-18T03:05:55.930Z,88.28
2016-03-18T03:06:55.932Z,88.18
2016-03-18T03:07:55.935Z,88.28
2016-03-18T03:08:55.937Z,88.18
2016-03-18T03:09:55.924Z,88.46
2016-03-18T03:10:55.926Z,88.75
2016-03-18T03:11:55.914Z,88.28
2016-03-18T03:12:55.916Z,88.28
2016-03-18T03:13:55.919Z,88.28
2016-03-18T03:14:55.921Z,88.37
2016-03-18T03:15:55.909Z,88.28
2016-03-18T03:16:55.926Z,87.9
2016-03-18T03:17:55.915Z,88.09
2016-03-18T03:18:55.901Z,88.28
2016-03-18T03:19:55.904Z,87.8
2016-03-18T03:20:55.891Z,87.99
2016-03-18T03:21:55.910Z,87.99
2016-03-18T03:22:55.896Z,87.99
2016-03-18T03:23:55.946Z,87.99
2016-03-18T03:24:55.901Z,87.8
2016-03-18T03:25:55.889Z,88.46
2016-03-18T03:26:55.892Z,88.09
2016-03-18T03:27:55.894Z,88.28
2016-03-18T03:28:55.881Z,88.46
2016-03-18T03:29:55.900Z,88.46
2016-03-18T03:30:55.886Z,87.99
2016-03-18T03:31:55.905Z,87.9
2016-03-18T03:32:55.892Z,88.09
2016-03-18T03:33:55.879Z,88.09
2016-03-18T03:34:55.883Z,88.46
2016-03-18T03:35:55.885Z,88.75
2016-03-18T03:36:55.872Z,88.28
2016-03-18T03:37:55.874Z,89.03
2016-03-18T03:38:55.877Z,88.84
2016-03-18T03:39:55.863Z,88.65
2016-03-18T03:40:55.866Z,89.03
2016-03-18T03:41:55.869Z,88.75
2016-03-18T03:42:55.857Z,88.65
2016-03-18T03:43:55.859Z,89.03
2016-03-18T03:44:55.862Z,88.93
2016-03-18T03:45:55.865Z,88.93
2016-03-18T03:46:55.852Z,88.84
2016-03-18T03:47:55.870Z,88.93
2016-03-18T03:48:55.857Z,88.37
2016-03-18T03:49:55.844Z,88.28
2016-03-18T03:50:55.863Z,88.28
2016-03-18T03:51:55.834Z,88.37
2016-03-18T03:52:55.852Z,88.56
2016-03-18T03:53:55.839Z,88.46
2016-03-18T03:54:55.842Z,88.28
2016-03-18T03:55:55.845Z,88.28
2016-03-18T03:56:55.831Z,88.46
2016-03-18T03:57:55.834Z,88.46
2016-03-18T03:58:55.836Z,88.65
2016-03-18T03:59:55.839Z,88.18
2016-03-18T04:00:55.842Z,88.28
2016-03-18T04:01:55.830Z,88.75
2016-03-18T04:02:55.817Z,89.03
2016-03-18T04:03:55.819Z,89.03
2016-03-18T04:04:55.666Z,89.12
2016-03-18T04:05:55.809Z,89.03
2016-03-18T04:06:55.811Z,88.75
2016-03-18T04:07:55.821Z,88.37
2016-03-18T04:08:55.809Z,89.03
2016-03-18T04:09:55.826Z,88.28
2016-03-18T04:10:55.814Z,88.46
2016-03-18T04:11:55.801Z,88.93
2016-03-18T04:12:55.819Z,88.93
2016-03-18T04:13:55.806Z,88.75
2016-03-18T04:14:55.793Z,88.84
2016-03-18T04:15:55.812Z,88.65
2016-03-18T04:16:55.814Z,89.03
2016-03-18T04:17:55.786Z,88.93
2016-03-18T04:18:55.803Z,89.59
2016-03-18T04:19:55.775Z,89.22
2016-03-18T04:20:55.778Z,89.31
2016-03-18T04:21:55.796Z,89.59
2016-03-18T04:22:55.783Z,89.69
2016-03-18T04:23:55.785Z,89.31
2016-03-18T04:24:55.788Z,89.22
2016-03-18T04:25:55.775Z,89.22
2016-03-18T04:26:55.778Z,89.5
2016-03-18T04:27:55.780Z,89.12
2016-03-18T04:28:55.784Z,89.22
2016-03-18T04:29:55.771Z,89.12
2016-03-18T04:30:55.774Z,88.93
2016-03-18T04:31:55.776Z,89.03
2016-03-18T04:32:55.779Z,88.93
2016-03-18T04:33:55.750Z,88.56
2016-03-18T04:34:55.753Z,89.12
2016-03-18T04:35:55.756Z,88.56
2016-03-18T04:36:55.759Z,88.46
2016-03-18T04:37:55.792Z,89.03
2016-03-18T04:38:55.764Z,88.93
2016-03-18T04:39:55.750Z,89.22
2016-03-18T04:40:55.754Z,89.5
2016-03-18T04:41:55.756Z,89.12
2016-03-18T04:42:55.743Z,89.69
2016-03-18T04:43:55.745Z,89.59
2016-03-18T04:44:55.749Z,89.5
2016-03-18T04:45:55.736Z,89.59
2016-03-18T04:46:55.739Z,89.4
2016-03-18T04:47:55.741Z,89.5
2016-03-18T04:48:55.728Z,89.22
2016-03-18T04:49:55.731Z,89.5
2016-03-18T04:50:55.750Z,90.07
2016-03-18T04:51:55.720Z,89.59
2016-03-18T04:52:55.739Z,89.69
2016-03-18T04:53:55.725Z,89.88
2016-03-18T04:54:55.713Z,89.97
2016-03-18T04:55:55.716Z,89.4
2016-03-18T04:56:55.734Z,89.69
2016-03-18T04:57:55.705Z,89.31
2016-03-18T04:58:55.708Z,89.69
2016-03-18T04:59:55.711Z,89.31
2016-03-18T05:00:55.714Z,89.97
2016-03-18T05:01:55.701Z,89.88
2016-03-18T05:02:55.703Z,89.4
2016-03-18T05:03:55.706Z,89.4
2016-03-18T05:04:55.693Z,89.97
2016-03-18T05:05:55.696Z,89.78
2016-03-18T05:06:55.714Z,89.88
2016-03-18T05:07:55.732Z,89.88
2016-03-18T05:08:55.703Z,89.4
2016-03-18T05:09:55.690Z,89.78
2016-03-18T05:10:55.693Z,89.97
2016-03-18T05:11:55.696Z,89.88
2016-03-18T05:12:55.683Z,89.78
2016-03-18T05:13:55.687Z,89.97
2016-03-18T05:14:55.689Z,89.78
2016-03-18T05:15:55.676Z,89.4
2016-03-18T05:16:55.695Z,89.5
2016-03-18T05:17:55.697Z,90.07
2016-03-18T05:18:55.684Z,90.26
2016-03-18T05:19:55.671Z,89.88
2016-03-18T05:20:55.673Z,90.45
2016-03-18T05:21:55.661Z,90.64
2016-03-18T05:22:55.538Z,90.64
2016-03-18T05:23:55.666Z,90.64
2016-03-18T05:24:55.653Z,90.45
2016-03-18T05:25:55.655Z,90.54
2016-03-18T05:26:55.658Z,91.01
2016-03-18T05:27:55.660Z,90.64
2016-03-18T05:28:55.648Z,90.73
2016-03-18T05:29:55.651Z,91.11
2016-03-18T05:30:55.669Z,90.92
2016-03-18T05:31:55.656Z,90.92
2016-03-18T05:32:55.643Z,91.01
2016-03-18T05:33:55.646Z,91.11
2016-03-18T05:34:55.633Z,90.54
2016-03-18T05:35:55.636Z,90.64
2016-03-18T05:36:55.639Z,90.45
2016-03-18T05:37:55.501Z,90.54
2016-03-18T05:38:55.629Z,90.92
2016-03-18T05:39:55.631Z,90.73
2016-03-18T05:40:55.633Z,90.73
2016-03-18T05:41:55.636Z,90.73
2016-03-18T05:42:55.623Z,90.82
2016-03-18T05:43:55.626Z,91.49
2016-03-18T05:44:55.613Z,91.49
2016-03-18T05:45:55.615Z,91.15
2016-03-18T05:46:55.618Z,91.53
2016-03-18T05:47:55.605Z,91.25
2016-03-18T05:48:55.609Z,91.34
2016-03-18T05:49:55.611Z,92.1
2016-03-18T05:50:55.614Z,91.91
2016-03-18T05:51:55.616Z,91.72
2016-03-18T05:52:55.619Z,91.72
2016-03-18T05:53:55.622Z,91.91
2016-03-18T05:54:55.594Z,91.82
2016-03-18T05:55:55.596Z,91.91
2016-03-18T05:56:55.599Z,92.19
2016-03-18T05:57:55.633Z,91.91
2016-03-18T05:58:55.605Z,92.1
2016-03-18T05:59:55.591Z,92
2016-03-18T06:00:55.593Z,91.63
2016-03-18T06:01:55.596Z,91.91
2016-03-18T06:02:55.583Z,92.33
2016-03-18T06:03:55.586Z,91.96
2016-03-18T06:04:55.588Z,92.61
2016-03-18T06:05:55.576Z,92.52
2016-03-18T06:06:55.578Z,92.61
2016-03-18T06:07:55.596Z,92.43
2016-03-18T06:08:55.568Z,92.99
2016-03-18T06:09:55.571Z,92.99
2016-03-18T06:10:55.573Z,92.8
2016-03-18T06:11:55.560Z,92.94
2016-03-18T06:12:55.595Z,92.76
2016-03-18T06:13:55.582Z,93.13
2016-03-18T06:14:55.568Z,93.04
2016-03-18T06:15:55.571Z,92.85
2016-03-18T06:16:55.559Z,92.76
2016-03-18T06:17:55.562Z,92.94
2016-03-18T06:18:55.564Z,92.85
2016-03-18T06:19:55.566Z,93.09
2016-03-18T06:20:55.569Z,93.18
2016-03-18T06:21:55.556Z,93.47
2016-03-18T06:22:55.559Z,93.37
2016-03-18T06:23:55.546Z,92.85
2016-03-18T06:24:55.564Z,92.76
2016-03-18T06:25:55.552Z,92.94
2016-03-18T06:26:55.570Z,93.13
2016-03-18T06:27:55.557Z,92.61
2016-03-18T06:28:55.544Z,92.52
2016-03-18T06:29:55.546Z,92.05
2016-03-18T06:30:55.550Z,92.14
2016-03-18T06:31:55.552Z,92.19
2016-03-18T06:32:55.539Z,92.47
2016-03-18T06:33:55.541Z,92.28
2016-03-18T06:34:55.544Z,92.14
2016-03-18T06:35:55.532Z,91.57
2016-03-18T06:36:55.535Z,91.42
2016-03-18T06:37:55.537Z,90.81
2016-03-18T06:38:55.540Z,90.05
2016-03-18T06:39:55.527Z,89.39
2016-03-18T06:40:55.545Z,88.95
2016-03-18T06:41:55.532Z,87.76
2016-03-18T06:42:55.534Z,87.1
2016-03-18T06:43:55.538Z,85.49
2016-03-18T06:44:55.524Z,84.01
2016-03-18T06:45:55.527Z,82.39
2016-03-18T06:46:55.529Z,81.44
2016-03-18T06:47:55.532Z,79.44
2016-03-18T06:48:55.535Z,78.44
2016-03-18T06:49:55.523Z,76.25
2016-03-18T06:50:55.806Z,74.16
2016-03-18T06:51:55.528Z,71.5
2016-03-18T06:52:55.531Z,69.44
2016-03-18T06:53:55.534Z,66.97
2016-03-18T06:54:55.520Z,65.73
2016-03-18T06:55:55.539Z,63.29
2016-03-18T06:56:55.514Z,61.19
2016-03-18T06:57:55.505Z,58.75
2016-03-18T06:58:55.495Z,56.75
2016-03-18T06:59:55.470Z,55.22
2016-03-18T07:00:55.461Z,53.06
2016-03-18T07:01:55.458Z,51.64
2016-03-18T07:02:55.457Z,50.71
2016-03-18T07:03:55.455Z,49.47
2016-03-18T07:04:55.468Z,48.04
2016-03-18T07:05:55.452Z,46.44
2016-03-18T07:06:55.453Z,45.39
2016-03-18T07:07:55.454Z,44.92
2016-03-18T07:08:55.456Z,43.98
2016-03-18T07:09:55.457Z,42.65
2016-03-18T07:10:55.458Z,41.33
2016-03-18T07:11:55.444Z,40.3
2016-03-18T07:12:55.447Z,38.96
2016-03-18T07:13:55.449Z,38.32
2016-03-18T07:14:55.451Z,37.26
2016-03-18T07:15:55.453Z,36.02
2016-03-18T07:16:55.455Z,35.64
2016-03-18T07:17:55.458Z,35.28
2016-03-18T07:18:55.460Z,34.42
2016-03-18T07:19:55.462Z,33.46
2016-03-18T07:20:55.464Z,33.65
2016-03-18T07:21:55.468Z,32.71
2016-03-18T07:22:55.470Z,32.62
2016-03-18T07:23:55.457Z,31.56
2016-03-18T07:24:55.459Z,31.58
2016-03-18T07:25:55.462Z,31.1
2016-03-18T07:26:55.465Z,30.91
2016-03-18T07:27:55.468Z,30.62
2016-03-18T07:28:55.471Z,29.77
2016-03-18T07:29:55.473Z,28.74
2016-03-18T07:30:55.475Z,28.35
2016-03-18T07:31:55.479Z,27.97
2016-03-18T07:32:55.481Z,27.5
2016-03-18T07:33:55.484Z,26.85
2016-03-18T07:34:55.486Z,26.27
2016-03-18T07:35:55.505Z,25.81
2016-03-18T07:36:55.492Z,25.43
2016-03-18T07:37:55.495Z,24.57
2016-03-18T07:38:55.497Z,24.1
2016-03-18T07:39:55.500Z,23.15
2016-03-18T07:40:55.502Z,22.48
2016-03-18T07:41:55.521Z,22.09
2016-03-18T07:42:55.524Z,22.09
2016-03-18T07:43:55.510Z,21.92
2016-03-18T07:44:55.529Z,21.62
2016-03-18T07:45:55.532Z,20.87
2016-03-18T07:46:55.534Z,20.5
2016-03-18T07:47:55.538Z,20.5
2016-03-18T07:48:55.540Z,20.12
2016-03-18T07:49:55.543Z,19.26
2016-03-18T07:50:55.545Z,18.88
2016-03-18T07:51:55.548Z,18.6
2016-03-18T07:52:55.551Z,17.84
2016-03-18T07:53:55.569Z,16.99
2016-03-18T07:54:55.572Z,17.28
2016-03-18T07:55:55.559Z,16.7
2016-03-18T07:56:55.562Z,16.23
2016-03-18T07:57:55.565Z,16.04
2016-03-18T07:58:55.583Z,15.08
2016-03-18T07:59:55.585Z,15.08
2016-03-18T08:00:55.589Z,15.17
2016-03-18T08:01:55.591Z,14.79
2016-03-18T08:02:55.594Z,14.8
2016-03-18T08:03:55.612Z,14.22
2016-03-18T08:04:55.614Z,14.12
2016-03-18T08:05:55.617Z,13.73
2016-03-18T08:06:55.604Z,14.03
2016-03-18T08:07:55.639Z,13.45
2016-03-18T08:08:55.625Z,13.73
2016-03-18T08:09:55.643Z,13.73
2016-03-18T08:10:55.630Z,12.87
2016-03-18T08:11:55.649Z,13.35
2016-03-18T08:12:55.635Z,13.16
2016-03-18T08:13:55.654Z,12.88
2016-03-18T08:14:55.641Z,12.3
2016-03-18T08:15:55.659Z,11.72
2016-03-18T08:16:55.663Z,11.82
2016-03-18T08:17:55.665Z,11.82
2016-03-18T08:18:55.668Z,11.54
2016-03-18T08:19:55.670Z,11.82
2016-03-18T08:20:55.688Z,11.72
2016-03-18T08:21:55.691Z,11.44
2016-03-18T08:22:55.693Z,11.05
2016-03-18T08:23:55.696Z,11.34
2016-03-18T08:24:55.699Z,11.44
2016-03-18T08:25:55.701Z,11.15
2016-03-18T08:26:55.705Z,10.66
2016-03-18T08:27:55.739Z,11.15
2016-03-18T08:28:55.725Z,10.85
2016-03-18T08:29:55.745Z,11.52
2016-03-18T08:30:55.731Z,11.43
2016-03-18T08:31:55.734Z,11.33
2016-03-18T08:32:55.752Z,11.9
2016-03-18T08:33:55.755Z,11.71
2016-03-18T08:34:55.757Z,11.33
2016-03-18T08:35:55.761Z,11.33
2016-03-18T08:36:55.763Z,11.33
2016-03-18T08:37:55.766Z,11.24
2016-03-18T08:38:55.783Z,10.75
2016-03-18T08:39:55.786Z,10.47
2016-03-18T08:40:55.789Z,10.47
2016-03-18T08:41:55.791Z,10.75
2016-03-18T08:42:55.794Z,10.85
2016-03-18T08:43:55.797Z,10.85
2016-03-18T08:44:55.832Z,10.56
2016-03-18T08:45:55.803Z,11.13
2016-03-18T08:46:55.821Z,11.33
2016-03-18T08:47:55.823Z,11.04
2016-03-18T08:48:55.827Z,10.66
2016-03-18T08:49:55.876Z,10.85
2016-03-18T08:50:55.847Z,10.57
2016-03-18T08:51:55.851Z,10.08
2016-03-18T08:52:55.853Z,10.17
2016-03-18T08:53:55.856Z,10.57
2016-03-18T08:54:55.859Z,10.37
2016-03-18T08:55:55.861Z,10.57
2016-03-18T08:56:55.863Z,10.38
2016-03-18T08:57:55.867Z,10.28
2016-03-18T08:58:55.900Z,9.99
2016-03-18T08:59:55.886Z,9.89
2016-03-18T09:00:55.889Z,9.99
2016-03-18T09:01:55.923Z,9.7
2016-03-18T09:02:55.911Z,9.32
2016-03-18T09:03:55.914Z,9.42
2016-03-18T09:04:55.916Z,8.74
2016-03-18T09:05:55.919Z,9.03
2016-03-18T09:06:55.922Z,9.03
2016-03-18T09:07:55.939Z,8.94
2016-03-18T09:08:55.802Z,8.74
2016-03-18T09:09:55.944Z,8.36
2016-03-18T09:10:55.948Z,7.97
2016-03-18T09:11:55.950Z,8.07
2016-03-18T09:12:55.953Z,8.07
2016-03-18T09:13:55.972Z,7.97
2016-03-18T09:14:55.958Z,8.17
2016-03-18T09:15:55.993Z,7.68
2016-03-18T09:16:55.980Z,7.39
2016-03-18T09:17:55.998Z,7.68
2016-03-18T09:18:55.985Z,7.68
2016-03-18T09:19:55.987Z,7.78
2016-03-18T09:20:55.990Z,7.39
2016-03-18T09:21:56.009Z,7.68
2016-03-18T09:22:56.012Z,7.59
2016-03-18T09:23:56.061Z,7.4
2016-03-18T09:24:56.017Z,7.5
2016-03-18T09:25:56.020Z,7.59
2016-03-18T09:26:56.022Z,7.3
2016-03-18T09:27:56.040Z,7.79
2016-03-18T09:28:56.043Z,7.79
2016-03-18T09:29:56.046Z,7.4
2016-03-18T09:30:56.048Z,7.59
2016-03-18T09:31:56.051Z,7.2
2016-03-18T09:32:56.054Z,7.2
2016-03-18T09:33:56.150Z,7.59
2016-03-18T09:34:56.075Z,7.4
2016-03-18T09:35:56.077Z,7.78
2016-03-18T09:36:56.081Z,7.97
2016-03-18T09:37:56.083Z,8.55
2016-03-18T09:38:56.102Z,9.42
2016-03-18T09:39:56.119Z,10.38
2016-03-18T09:40:56.107Z,10.66
2016-03-18T09:41:56.110Z,12.01
2016-03-18T09:42:56.112Z,12.87
2016-03-18T09:43:56.115Z,14.1
2016-03-18T09:44:56.118Z,15.15
2016-03-18T09:45:56.120Z,16.49
2016-03-18T09:46:56.124Z,17.92
2016-03-18T09:47:56.126Z,19.06
2016-03-18T09:48:56.143Z,20.67
2016-03-18T09:49:56.147Z,21.91
2016-03-18T09:50:56.149Z,23.24
2016-03-18T09:51:56.151Z,24.27
2016-03-18T09:52:56.155Z,25.51
2016-03-18T09:53:56.173Z,26.16
2016-03-18T09:54:56.176Z,27.49
2016-03-18T09:55:56.179Z,28.35
2016-03-18T09:56:56.165Z,28.91
2016-03-18T09:57:56.168Z,29.66
2016-03-18T09:58:56.186Z,30.33
2016-03-18T09:59:56.189Z,31.47
2016-03-18T10:00:56.191Z,31.93
2016-03-18T10:01:56.272Z,32.41
2016-03-18T10:02:56.212Z,32.78
2016-03-18T10:03:56.215Z,33.06
2016-03-18T10:04:56.217Z,33.54
2016-03-18T10:05:56.221Z,33.92
2016-03-18T10:06:56.223Z,34.49
2016-03-18T10:07:56.225Z,34.97
2016-03-18T10:08:56.276Z,35.74
2016-03-18T10:09:56.231Z,36.29
2016-03-18T10:10:56.250Z,36.77
2016-03-18T10:11:56.253Z,37.15
2016-03-18T10:12:56.239Z,36.77
2016-03-18T10:13:56.258Z,37.34
2016-03-18T10:14:56.260Z,37.63
2016-03-18T10:15:56.263Z,38.1
2016-03-18T10:16:56.266Z,38.3
2016-03-18T10:17:56.268Z,38.01
2016-03-18T10:18:56.272Z,38.01
2016-03-18T10:19:56.274Z,38.39
2016-03-18T10:20:56.277Z,38.96
2016-03-18T10:21:56.279Z,39.23
2016-03-18T10:22:56.282Z,40.37
2016-03-18T10:23:56.284Z,40.28
2016-03-18T10:24:56.318Z,40.57
2016-03-18T10:25:56.306Z,40.66
2016-03-18T10:26:56.308Z,40.95
2016-03-18T10:27:56.312Z,41.12
2016-03-18T10:28:56.314Z,41.71
2016-03-18T10:29:56.317Z,41.79
2016-03-18T10:30:56.319Z,41.98
2016-03-18T10:31:56.337Z,42.08
2016-03-18T10:32:56.339Z,42.55
2016-03-18T10:33:56.343Z,42.36
2016-03-18T10:34:56.346Z,43.22
2016-03-18T10:35:56.348Z,43.13
2016-03-18T10:36:56.351Z,43.41
2016-03-18T10:37:56.353Z,43.41
2016-03-18T10:38:56.356Z,43.22
2016-03-18T10:39:56.359Z,43.13
2016-03-18T10:40:56.377Z,42.93
2016-03-18T10:41:56.380Z,43.13
2016-03-18T10:42:56.383Z,43.13
2016-03-18T10:43:56.386Z,43.03
2016-03-18T10:44:56.388Z,42.65
2016-03-18T10:45:56.391Z,42.36
2016-03-18T10:46:56.393Z,42.36
2016-03-18T10:47:56.380Z,42.74
2016-03-18T10:48:56.399Z,43.22
2016-03-18T10:49:56.401Z,43.13
2016-03-18T10:50:56.405Z,43.13
2016-03-18T10:51:56.407Z,43.32
2016-03-18T10:52:56.409Z,42.93
2016-03-18T10:53:56.413Z,42.74
2016-03-18T10:54:56.415Z,43.32
2016-03-18T10:55:56.418Z,43.13
2016-03-18T10:56:56.421Z,43.6
2016-03-18T10:57:56.439Z,43.13
2016-03-18T10:58:56.426Z,43.22
2016-03-18T10:59:56.445Z,43.7
2016-03-18T11:00:56.447Z,43.79
2016-03-18T11:01:56.450Z,43.98
2016-03-18T11:02:56.453Z,44.15
2016-03-18T11:03:56.455Z,44.25
2016-03-18T11:04:56.473Z,44.25
2016-03-18T11:05:56.461Z,44.34
2016-03-18T11:06:56.478Z,44.44
2016-03-18T11:07:56.481Z,44.92
2016-03-18T11:08:56.484Z,45.39
2016-03-18T11:09:56.486Z,45.78
2016-03-18T11:10:56.474Z,45.58
2016-03-18T11:11:56.477Z,45.58
2016-03-18T11:12:56.479Z,45.68
2016-03-18T11:13:56.482Z,45.78
2016-03-18T11:14:56.485Z,46.15
2016-03-18T11:15:56.488Z,46.34
2016-03-18T11:16:56.490Z,46.15
2016-03-18T11:17:56.493Z,46.06
2016-03-18T11:18:56.511Z,46.25
2016-03-18T11:19:56.513Z,45.78
2016-03-18T11:20:56.532Z,45.87
2016-03-18T11:21:56.519Z,45.97
2016-03-18T11:22:56.522Z,45.68
2016-03-18T11:23:56.540Z,45.51
2016-03-18T11:24:56.527Z,45.32
2016-03-18T11:25:56.545Z,45.51
2016-03-18T11:26:56.532Z,45.7
2016-03-18T11:27:56.535Z,45.32
2016-03-18T11:28:56.538Z,45.61
2016-03-18T11:29:56.556Z,45.89
2016-03-18T11:30:56.542Z,45.89
2016-03-18T11:31:56.546Z,45.97
2016-03-18T11:32:56.548Z,45.68
2016-03-18T11:33:56.582Z,46.34
2016-03-18T11:34:56.553Z,46.44
2016-03-18T11:35:56.572Z,46.34
2016-03-18T11:36:56.559Z,46.27
2016-03-18T11:37:56.561Z,46.37
2016-03-18T11:38:56.564Z,46.84
2016-03-18T11:39:56.583Z,46.75
2016-03-18T11:40:56.586Z,46.27
2016-03-18T11:41:56.572Z,46.56
2016-03-18T11:42:56.591Z,46.47
2016-03-18T11:43:56.578Z,47.13
2016-03-18T11:44:56.597Z,47.03
2016-03-18T11:45:56.599Z,46.37
2016-03-18T11:46:56.602Z,46.37
2016-03-18T11:47:56.605Z,45.99
2016-03-18T11:48:56.607Z,46.08
2016-03-18T11:49:56.625Z,45.99
2016-03-18T11:50:56.612Z,45.51
2016-03-18T11:51:56.616Z,45.42
2016-03-18T11:52:56.618Z,44.84
2016-03-18T11:53:56.620Z,45.32
2016-03-18T11:54:56.623Z,44.65
2016-03-18T11:55:56.626Z,44.74
2016-03-18T11:56:56.629Z,44.65
2016-03-18T11:57:56.637Z,44.84
2016-03-18T11:58:56.639Z,45.32
2016-03-18T11:59:56.642Z,45.32
2016-03-18T12:00:56.644Z,45.51
2016-03-18T12:01:56.631Z,45.22
2016-03-18T12:02:56.650Z,45.61
2016-03-18T12:03:56.652Z,45.42
2016-03-18T12:04:56.639Z,45.42
2016-03-18T12:05:56.658Z,45.51
2016-03-18T12:06:56.661Z,45.32
2016-03-18T12:07:56.648Z,44.94
2016-03-18T12:08:56.666Z,44.74
2016-03-18T12:09:56.669Z,44.46
2016-03-18T12:10:56.671Z,44.74
2016-03-18T12:11:56.674Z,44.65
2016-03-18T12:12:56.677Z,44.65
2016-03-18T12:13:56.679Z,44.56
2016-03-18T12:14:56.682Z,44.37
2016-03-18T12:15:56.684Z,44.37
2016-03-18T12:16:56.688Z,44.46
2016-03-18T12:17:56.690Z,44.37
2016-03-18T12:18:56.693Z,44.46
2016-03-18T12:19:56.696Z,44.08
2016-03-18T12:20:56.713Z,43.89
2016-03-18T12:21:56.701Z,44.17
2016-03-18T12:22:56.704Z,44.37
2016-03-18T12:23:56.707Z,43.03
2016-03-18T12:24:56.709Z,43.51
2016-03-18T12:25:56.727Z,43.22
2016-03-18T12:26:56.714Z,43.41
2016-03-18T12:27:56.717Z,43.89
2016-03-18T12:28:56.735Z,43.7
2016-03-18T12:29:56.722Z,43.6
2016-03-18T12:30:56.725Z,43.6
2016-03-18T12:31:56.759Z,44.08
2016-03-18T12:32:56.731Z,44.27
2016-03-18T12:33:56.733Z,44.56
2016-03-18T12:34:56.736Z,44.46
2016-03-18T12:35:56.739Z,44.56
2016-03-18T12:36:56.742Z,44.27
2016-03-18T12:37:56.744Z,44.27
2016-03-18T12:38:56.778Z,43.79
2016-03-18T12:39:56.749Z,43.98
2016-03-18T12:40:56.752Z,43.89
2016-03-18T12:41:56.755Z,44.17
2016-03-18T12:42:56.773Z,44.08
2016-03-18T12:43:56.761Z,44.08
2016-03-18T12:44:56.763Z,44.27
2016-03-18T12:45:56.781Z,44.56
2016-03-18T12:46:56.768Z,43.89
2016-03-18T12:47:56.771Z,43.41
2016-03-18T12:48:56.774Z,43.98
2016-03-18T12:49:56.776Z,44.37
2016-03-18T12:50:56.794Z,44.08
2016-03-18T12:51:56.782Z,44.27
2016-03-18T12:52:56.785Z,44.37
2016-03-18T12:53:56.787Z,44.37
2016-03-18T12:54:56.790Z,43.89
2016-03-18T12:55:56.792Z,44.08
2016-03-18T12:56:56.795Z,43.91